Airfield :







YOU CAN JOIN US ON...

 
LOGIN :

Register | Disclaimer

   EN    FR    IT 

 









Legend :    VFR   Marginal VFR   IFR   Intensive IFR   Very Intensive IFR
Visi :
Ceiling :
>= 8 km
>= 3000ft
5 to 8 km
1000 to 3000 ft
1500m to 5 km
500 to 1000 ft
800 to 1500m
200 to 500 ft
< 800m
< 200 ft
Symbols :   Thunderstorms  Fog  Heavy snow  Heavy precipitations  Wind > 20 kt






- Airport Elevation : 792 ft
- IATA code : YSC


CYSC - Sherbrooke

CURRENT METAR :
  • 110500Z AUTO 28015G21KT 9SM CLR M05/M12 A3001 RMK SLP175

EXPIRED METARs :
  • 110400Z AUTO 27015G24KT 9SM BKN046 BKN060 BKN250 M04/M12 A3001 RMK SLP171
  • 110300Z AUTO 28015G20KT 9SM BKN034 OVC044 M03/M09 A2996 RMK SLP156
  • 110240Z AUTO 26014G19KT 9SM FEW033 BKN041 OVC065 M03/M09 A2995 RMK PRESRR SLP153

Expired Forecast.



MET'MAP, your aeronautical weather chart ! - Copyright ORBIFLY December 2007 - Disclaimer

ORBIFLY MET'MAP TEAM :

Programming & Development : Alexandra Zaïnal
Concept & original design : Baudouin d'Aumeries
Assistance for programming : Marc-Olivier Méhu
Technical & hardware support : Manuel Goepfert

Contact : metmap@orbifly.com




SOURCES & CREDITS :

   NOAA